createdAt,value
2018-07-06T02:24:42.856Z,6.60
2018-07-06T02:25:42.842Z,10.00
2018-07-06T02:27:35.754Z,9.70
2018-07-06T02:28:35.770Z,11.30
2018-07-06T02:30:28.705Z,10.50
2018-07-06T02:31:28.694Z,12.70
2018-07-06T02:33:21.639Z,10.70
2018-07-06T02:34:21.632Z,10.70
2018-07-06T02:36:14.552Z,11.10
2018-07-06T02:37:14.567Z,10.40
2018-07-06T02:39:07.512Z,11.10
2018-07-06T02:40:07.500Z,11.40
2018-07-06T02:42:00.468Z,10.20
2018-07-06T02:43:00.437Z,9.50
2018-07-06T02:44:53.386Z,9.90
2018-07-06T02:45:53.380Z,10.60
2018-07-06T02:47:46.303Z,10.20
2018-07-06T02:48:46.315Z,9.70
2018-07-06T02:50:39.258Z,12.60
2018-07-06T02:51:39.255Z,11.30
2018-07-06T02:53:32.197Z,11.50
2018-07-06T02:54:32.199Z,11.10
2018-07-06T02:56:25.126Z,10.30
2018-07-06T02:57:25.140Z,10.40
2018-07-06T02:59:18.088Z,10.70
2018-07-06T03:00:18.079Z,11.20
2018-07-06T03:02:11.005Z,9.70
2018-07-06T03:03:11.016Z,12.20
2018-07-06T03:05:03.964Z,12.20
2018-07-06T03:06:03.962Z,11.00
2018-07-06T03:07:56.885Z,11.20
2018-07-06T03:08:56.903Z,11.40
2018-07-06T03:10:49.856Z,10.10
2018-07-06T03:11:49.845Z,10.60
2018-07-06T03:13:42.805Z,10.00
2018-07-06T03:14:42.789Z,11.10
2018-07-06T03:16:35.713Z,9.70
2018-07-06T03:17:35.726Z,10.80
2018-07-06T03:19:28.681Z,9.60
2018-07-06T03:20:28.669Z,11.80
2018-07-06T03:22:21.596Z,11.30
2018-07-06T03:23:21.613Z,11.40
2018-07-06T03:25:14.558Z,11.10
2018-07-06T03:26:14.613Z,10.30
2018-07-06T03:28:07.546Z,10.40
2018-07-06T03:29:07.490Z,12.10
2018-07-06T03:31:00.438Z,12.80
2018-07-06T03:32:00.434Z,10.50
2018-07-06T03:33:53.361Z,9.70
2018-07-06T03:34:53.374Z,10.70
2018-07-06T03:36:46.328Z,10.40
2018-07-06T03:37:46.323Z,12.60
2018-07-06T03:39:39.271Z,10.20
2018-07-06T03:40:39.262Z,10.80
2018-07-06T03:42:32.188Z,11.60
2018-07-06T03:43:32.209Z,11.90
2018-07-06T03:45:25.160Z,10.60
2018-07-06T03:46:25.146Z,11.40
2018-07-06T03:48:18.075Z,10.40
2018-07-06T03:49:18.090Z,10.00
2018-07-06T03:51:11.036Z,12.00
2018-07-06T03:52:11.031Z,10.30
2018-07-06T03:54:03.959Z,10.80
2018-07-06T03:55:03.978Z,10.40
2018-07-06T03:56:56.921Z,9.50
2018-07-06T03:57:56.921Z,11.10
2018-07-06T03:59:50.360Z,9.70
2018-07-06T04:00:50.355Z,9.30
2018-07-06T04:02:43.281Z,10.10
2018-07-06T04:03:43.298Z,11.10
2018-07-06T04:05:36.244Z,10.10
2018-07-06T04:06:36.233Z,10.60
2018-07-06T04:08:29.161Z,11.00
2018-07-06T04:09:29.187Z,12.60
2018-07-06T04:11:22.128Z,10.90
2018-07-06T04:12:22.119Z,10.00
2018-07-06T04:14:15.051Z,11.80
2018-07-06T04:15:15.061Z,11.10
2018-07-06T04:17:08.013Z,10.40
2018-07-06T04:18:08.003Z,10.20
2018-07-06T04:20:00.954Z,12.30
2018-07-06T04:21:00.947Z,10.80
2018-07-06T04:22:53.875Z,10.50
2018-07-06T04:23:53.891Z,10.30
2018-07-06T04:25:46.838Z,11.30
2018-07-06T04:26:46.830Z,11.90
2018-07-06T04:28:39.757Z,11.70
2018-07-06T04:29:39.768Z,9.60
2018-07-06T04:31:32.726Z,9.20
2018-07-06T04:32:32.718Z,11.30
2018-07-06T04:34:25.649Z,11.20
2018-07-06T04:35:25.666Z,9.60
2018-07-06T04:37:18.613Z,10.60
2018-07-06T04:38:18.608Z,10.60
2018-07-06T04:40:11.553Z,10.50
2018-07-06T04:41:11.552Z,10.10
2018-07-06T04:43:04.481Z,11.10
2018-07-06T04:44:04.494Z,12.70
2018-07-06T04:45:57.440Z,12.90
2018-07-06T04:46:57.437Z,13.70
2018-07-06T04:48:50.362Z,14.00
2018-07-06T04:49:50.384Z,15.50
2018-07-06T04:51:43.326Z,14.80
2018-07-06T04:52:43.322Z,13.50
2018-07-06T04:54:36.269Z,14.10
2018-07-06T04:55:36.276Z,15.20
2018-07-06T04:57:29.225Z,15.30
2018-07-06T04:58:29.222Z,17.70
2018-07-06T05:00:22.180Z,18.80
2018-07-06T05:01:22.166Z,18.00
2018-07-06T05:03:15.095Z,18.60
2018-07-06T05:04:15.111Z,17.70
2018-07-06T05:06:08.066Z,16.50
2018-07-06T05:07:08.052Z,17.10
2018-07-06T05:09:00.985Z,19.60
2018-07-06T05:10:01.001Z,18.90
2018-07-06T05:11:53.949Z,18.90
2018-07-06T05:12:53.957Z,19.30
2018-07-06T05:14:46.873Z,20.30
2018-07-06T05:15:46.888Z,21.80
2018-07-06T05:16:46.966Z,20.90
2018-07-06T05:17:46.927Z,28.90
2018-07-06T05:18:46.948Z,21.60
2018-07-06T05:19:46.967Z,18.50
2018-07-06T05:20:46.993Z,20.90
2018-07-06T05:21:47.012Z,19.90
2018-07-06T05:22:47.030Z,19.70
2018-07-06T05:23:47.057Z,20.20
2018-07-06T05:24:47.075Z,19.00
2018-07-06T05:25:47.093Z,21.60
2018-07-06T05:26:47.116Z,20.50
2018-07-06T05:27:47.140Z,22.60
2018-07-06T05:28:47.158Z,24.00
2018-07-06T05:29:47.184Z,22.70
2018-07-06T05:30:47.205Z,20.40
2018-07-06T05:31:47.221Z,23.00
2018-07-06T05:32:47.245Z,22.70
2018-07-06T05:33:47.264Z,22.60
2018-07-06T05:34:47.285Z,21.70
2018-07-06T05:35:47.308Z,21.90
2018-07-06T05:36:47.326Z,22.20
2018-07-06T05:37:47.357Z,22.70
2018-07-06T05:38:47.370Z,23.70
2018-07-06T05:39:47.394Z,23.40
2018-07-06T05:40:47.416Z,23.10
2018-07-06T05:41:47.436Z,23.10
2018-07-06T05:42:47.466Z,21.50
2018-07-06T05:43:47.482Z,22.10
2018-07-06T05:44:47.503Z,22.00
2018-07-06T05:45:47.522Z,24.20
2018-07-06T05:46:47.542Z,22.00
2018-07-06T05:47:47.565Z,23.80
2018-07-06T05:48:47.584Z,23.60
2018-07-06T05:49:47.618Z,24.70
2018-07-06T05:50:47.629Z,23.40
2018-07-06T05:51:47.649Z,23.70
2018-07-06T05:52:47.674Z,22.60
2018-07-06T05:53:47.745Z,24.50
2018-07-06T05:54:47.713Z,20.70
2018-07-06T05:55:47.734Z,21.70
2018-07-06T05:56:47.757Z,21.10
2018-07-06T05:57:47.783Z,23.50
2018-07-06T05:58:47.803Z,22.80
2018-07-06T05:59:47.823Z,22.20
2018-07-06T06:00:47.838Z,24.20
2018-07-06T06:01:47.861Z,21.00
2018-07-06T06:02:47.885Z,22.90
2018-07-06T06:03:47.918Z,22.00
2018-07-06T06:04:47.933Z,21.40
2018-07-06T06:05:47.953Z,23.30
2018-07-06T06:06:47.970Z,21.70
2018-07-06T06:07:47.996Z,20.70
2018-07-06T06:08:48.020Z,21.80
2018-07-06T06:09:48.035Z,24.10
2018-07-06T06:10:48.067Z,25.00
2018-07-06T06:11:48.117Z,25.60
2018-07-06T06:12:48.101Z,22.50
2018-07-06T06:13:48.122Z,24.40
2018-07-06T06:14:48.190Z,21.50
2018-07-06T06:15:48.162Z,24.80
2018-07-06T06:16:48.189Z,22.80
2018-07-06T06:18:48.377Z,22.30
2018-07-06T06:19:48.345Z,22.50
2018-07-06T06:20:48.271Z,26.40
2018-07-06T06:21:48.295Z,27.90
2018-07-06T06:22:48.317Z,24.40
2018-07-06T06:23:48.337Z,25.80
2018-07-06T06:24:48.380Z,23.20
2018-07-06T06:25:48.392Z,23.10
2018-07-06T06:26:48.405Z,24.20
2018-07-06T06:27:48.429Z,26.20
2018-07-06T06:28:48.459Z,26.60
2018-07-06T06:29:48.471Z,23.20
2018-07-06T06:30:48.498Z,24.20
2018-07-06T06:31:48.547Z,23.10
2018-07-06T06:32:48.549Z,23.80
2018-07-06T06:33:48.700Z,24.90
2018-07-06T06:34:48.585Z,23.90
2018-07-06T06:35:48.616Z,23.70
2018-07-06T06:36:48.627Z,24.70
2018-07-06T06:37:48.646Z,23.20
2018-07-06T06:38:48.669Z,22.30
2018-07-06T06:39:48.690Z,25.10
2018-07-06T06:40:48.715Z,23.60
2018-07-06T06:41:48.734Z,23.00
2018-07-06T06:42:48.795Z,23.10
2018-07-06T06:43:48.773Z,24.60
2018-07-06T06:44:48.836Z,22.00
2018-07-06T06:45:48.817Z,22.00
2018-07-06T06:46:48.847Z,22.40
2018-07-06T06:47:48.880Z,22.60
2018-07-06T06:48:48.911Z,21.90
2018-07-06T06:49:48.947Z,22.00
2018-07-06T06:50:48.984Z,22.50
2018-07-06T06:51:48.955Z,23.00
2018-07-06T06:52:48.976Z,23.10
2018-07-06T06:53:49.011Z,22.00
2018-07-06T06:54:49.019Z,19.90
2018-07-06T06:55:49.041Z,20.90
2018-07-06T06:56:49.068Z,23.80
2018-07-06T06:57:49.086Z,20.40
2018-07-06T06:58:49.103Z,19.50
2018-07-06T06:59:49.131Z,19.70
2018-07-06T07:00:49.153Z,18.60
2018-07-06T07:01:49.175Z,20.20
2018-07-06T07:02:49.194Z,21.10
2018-07-06T07:03:49.217Z,20.60
2018-07-06T07:04:49.239Z,20.60
2018-07-06T07:05:49.259Z,22.10
2018-07-06T07:06:49.288Z,20.00
2018-07-06T07:07:49.369Z,19.60
2018-07-06T07:08:49.329Z,19.20
2018-07-06T07:09:49.347Z,20.30
2018-07-06T07:10:49.372Z,20.10
2018-07-06T07:11:49.442Z,20.20
2018-07-06T07:12:49.427Z,21.50
2018-07-06T07:13:49.523Z,19.10
2018-07-06T07:14:49.460Z,18.20
2018-07-06T07:15:49.490Z,19.70
2018-07-06T07:16:49.507Z,20.10
2018-07-06T07:17:49.526Z,17.50
2018-07-06T07:18:49.547Z,20.60
2018-07-06T07:19:49.572Z,21.70
2018-07-06T07:20:49.594Z,21.90
2018-07-06T07:21:49.614Z,23.50
2018-07-06T07:22:49.641Z,21.70
2018-07-06T07:23:49.672Z,21.40
2018-07-06T07:24:49.688Z,21.10
2018-07-06T07:25:49.717Z,19.60
2018-07-06T07:26:49.727Z,21.80
2018-07-06T07:27:49.751Z,25.70
2018-07-06T07:28:49.780Z,21.70
2018-07-06T07:29:49.796Z,20.30
2018-07-06T07:30:49.819Z,18.80
2018-07-06T07:31:49.842Z,22.60
2018-07-06T07:32:49.879Z,18.40
2018-07-06T07:33:49.898Z,20.70
2018-07-06T07:34:49.916Z,19.80
2018-07-06T07:35:49.930Z,18.40
2018-07-06T07:36:49.953Z,20.40
2018-07-06T07:37:49.979Z,20.00
2018-07-06T07:38:50.015Z,19.90
2018-07-06T07:39:50.024Z,20.50
2018-07-06T07:40:50.044Z,19.90
2018-07-06T07:41:50.070Z,19.40
2018-07-06T07:42:50.095Z,21.70
2018-07-06T07:43:50.112Z,21.50
2018-07-06T07:44:50.144Z,22.90
2018-07-06T07:45:50.154Z,21.70
2018-07-06T07:46:50.183Z,20.90
2018-07-06T07:47:50.206Z,20.40
2018-07-06T07:48:50.235Z,19.30
2018-07-06T07:49:50.247Z,20.30
2018-07-06T07:50:50.276Z,21.00
2018-07-06T07:51:50.296Z,18.40
2018-07-06T07:52:50.317Z,20.10
2018-07-06T07:53:50.335Z,21.80
2018-07-06T07:54:50.364Z,18.80
2018-07-06T07:55:50.387Z,19.30
2018-07-06T07:56:50.408Z,18.60
2018-07-06T07:57:50.431Z,19.00
2018-07-06T07:58:50.457Z,17.30
2018-07-06T07:59:50.496Z,17.90
2018-07-06T08:00:50.613Z,16.90
2018-07-06T08:01:50.531Z,15.10
2018-07-06T08:02:50.565Z,17.10
2018-07-06T08:03:50.582Z,16.80
2018-07-06T08:04:50.603Z,16.50
2018-07-06T08:05:50.625Z,16.20
2018-07-06T08:06:50.648Z,16.10
2018-07-06T08:07:50.694Z,16.40
2018-07-06T08:08:50.692Z,15.40
2018-07-06T08:09:50.713Z,16.10
2018-07-06T08:10:50.743Z,13.70
2018-07-06T08:11:50.778Z,13.70
2018-07-06T08:12:50.790Z,13.60
2018-07-06T08:13:50.810Z,15.90
2018-07-06T08:14:50.830Z,15.80
2018-07-06T08:15:50.853Z,15.00
2018-07-06T08:16:50.878Z,15.40
2018-07-06T08:17:50.902Z,14.10
2018-07-06T08:18:50.922Z,15.60
2018-07-06T08:19:50.956Z,16.70
2018-07-06T08:20:50.969Z,14.70
2018-07-06T08:21:50.990Z,16.10
2018-07-06T08:22:51.022Z,14.50
2018-07-06T08:23:51.038Z,14.60
2018-07-06T08:24:51.068Z,15.70
2018-07-06T08:25:51.083Z,15.40
2018-07-06T08:26:51.116Z,16.60
2018-07-06T08:27:51.131Z,15.40
2018-07-06T08:28:51.162Z,15.00
2018-07-06T08:29:51.183Z,15.50
2018-07-06T08:30:51.205Z,15.20
2018-07-06T08:31:51.227Z,15.30
2018-07-06T08:32:51.255Z,14.80
2018-07-06T08:33:51.277Z,18.10
2018-07-06T08:34:51.301Z,14.00
2018-07-06T08:35:51.322Z,14.40
2018-07-06T08:36:51.361Z,16.80
2018-07-06T08:37:51.366Z,15.70
2018-07-06T08:38:51.392Z,15.00
2018-07-06T08:39:51.433Z,14.60
2018-07-06T08:40:51.444Z,16.00
2018-07-06T08:41:51.460Z,18.10
2018-07-06T08:42:51.488Z,16.20
2018-07-06T08:43:51.517Z,15.90
2018-07-06T08:44:51.542Z,38.30
2018-07-06T08:45:51.563Z,16.40
2018-07-06T08:46:51.588Z,20.00
2018-07-06T08:47:51.618Z,23.90
2018-07-06T08:48:51.629Z,25.50
2018-07-06T08:49:51.659Z,16.10
2018-07-06T08:50:51.684Z,16.90
2018-07-06T08:51:51.702Z,15.10
2018-07-06T08:52:51.722Z,14.20
2018-07-06T08:53:51.748Z,14.50
2018-07-06T08:54:51.774Z,15.40
2018-07-06T08:55:51.800Z,14.80
2018-07-06T08:56:51.841Z,16.40
2018-07-06T08:57:51.848Z,15.60
2018-07-06T08:58:51.871Z,16.00
2018-07-06T08:59:51.900Z,14.10
2018-07-06T09:00:51.917Z,14.10
2018-07-06T09:01:51.945Z,15.00
2018-07-06T09:02:51.964Z,14.90
2018-07-06T09:03:51.996Z,15.40
2018-07-06T09:04:52.038Z,13.80
2018-07-06T09:05:52.039Z,15.00
2018-07-06T09:06:52.067Z,14.60
2018-07-06T09:07:52.090Z,15.40
2018-07-06T09:08:52.118Z,14.30
2018-07-06T09:09:52.146Z,14.50
2018-07-06T09:10:52.169Z,16.40
2018-07-06T09:11:52.189Z,13.60
2018-07-06T09:12:52.212Z,15.70
2018-07-06T09:13:52.243Z,13.50
2018-07-06T09:14:52.271Z,16.10
2018-07-06T09:15:52.289Z,16.50
2018-07-06T09:16:52.314Z,14.20
2018-07-06T09:17:52.342Z,15.20
2018-07-06T09:18:52.360Z,15.80
2018-07-06T09:19:52.729Z,15.00
2018-07-06T09:20:52.416Z,14.70
2018-07-06T09:21:52.437Z,14.60
2018-07-06T09:22:52.475Z,15.80
2018-07-06T09:23:52.488Z,15.90
2018-07-06T09:24:52.512Z,14.70
2018-07-06T09:25:52.948Z,15.40
2018-07-06T09:26:52.568Z,15.40
2018-07-06T09:27:52.583Z,13.60
2018-07-06T09:28:52.609Z,13.80
2018-07-06T09:29:52.637Z,14.20
2018-07-06T09:30:52.665Z,13.40
2018-07-06T09:31:52.730Z,14.50
2018-07-06T09:32:52.724Z,14.00
2018-07-06T09:33:52.750Z,14.50
2018-07-06T09:34:52.760Z,14.80
2018-07-06T09:35:52.852Z,13.90
2018-07-06T09:36:52.812Z,14.80
2018-07-06T09:37:52.837Z,14.00
2018-07-06T09:38:52.856Z,15.30
2018-07-06T09:39:52.927Z,11.70
2018-07-06T09:40:52.910Z,12.60
2018-07-06T09:41:52.930Z,14.10
2018-07-06T09:42:52.957Z,16.20
2018-07-06T09:43:52.986Z,13.80
2018-07-06T09:44:53.008Z,14.20
2018-07-06T09:45:53.030Z,13.00
2018-07-06T09:46:53.062Z,11.80
2018-07-06T09:47:53.085Z,13.30
2018-07-06T09:48:53.108Z,12.90
2018-07-06T09:49:53.133Z,12.60
2018-07-06T09:50:53.208Z,13.80
2018-07-06T09:51:53.181Z,15.60
2018-07-06T09:52:53.204Z,13.20
2018-07-06T09:53:53.483Z,13.00
2018-07-06T09:54:53.508Z,12.40
2018-07-06T09:55:53.282Z,13.00
2018-07-06T09:56:53.307Z,13.70
2018-07-06T09:57:53.367Z,17.10
2018-07-06T09:58:53.355Z,13.50
2018-07-06T09:59:53.380Z,14.30
2018-07-06T10:00:53.405Z,14.30
2018-07-06T10:01:53.428Z,14.30
2018-07-06T10:02:53.457Z,14.50
2018-07-06T10:03:53.479Z,13.80
2018-07-06T10:04:53.516Z,13.30
2018-07-06T10:05:53.530Z,13.10
2018-07-06T10:06:53.564Z,12.90
2018-07-06T10:07:53.583Z,14.80
2018-07-06T10:08:53.605Z,12.90
2018-07-06T10:09:53.764Z,14.10
2018-07-06T10:10:53.667Z,14.50
2018-07-06T10:11:53.677Z,14.40
2018-07-06T10:12:53.705Z,15.80
2018-07-06T10:13:53.732Z,14.30
2018-07-06T10:14:53.756Z,12.20
2018-07-06T10:15:53.776Z,12.80
2018-07-06T10:16:53.841Z,14.70
2018-07-06T10:17:53.828Z,13.30
2018-07-06T10:18:53.851Z,15.30
2018-07-06T10:19:54.015Z,15.00
2018-07-06T10:20:53.940Z,14.20
2018-07-06T10:21:53.954Z,12.70
2018-07-06T10:22:53.965Z,14.10
2018-07-06T10:23:53.976Z,14.10
2018-07-06T10:24:54.000Z,13.00
2018-07-06T10:25:54.030Z,13.30
2018-07-06T10:26:54.049Z,13.80
2018-07-06T10:27:54.077Z,13.10
2018-07-06T10:28:54.106Z,14.70
2018-07-06T10:29:54.132Z,12.80
2018-07-06T10:30:54.146Z,14.30
2018-07-06T10:31:54.177Z,14.00
2018-07-06T10:32:54.200Z,12.60
2018-07-06T10:33:54.305Z,12.90
2018-07-06T10:34:54.247Z,13.40
2018-07-06T10:35:54.279Z,15.10
2018-07-06T10:36:54.301Z,14.10
2018-07-06T10:37:54.324Z,16.00
2018-07-06T10:38:54.351Z,13.00
2018-07-06T10:39:54.560Z,13.90
2018-07-06T10:40:54.398Z,13.50
2018-07-06T10:41:54.420Z,17.20
2018-07-06T10:42:54.451Z,14.80
2018-07-06T10:43:54.473Z,13.50
2018-07-06T10:44:54.500Z,12.10
2018-07-06T10:45:54.531Z,12.30
2018-07-06T10:46:54.547Z,11.90
2018-07-06T10:47:54.574Z,11.30
2018-07-06T10:48:54.606Z,11.10
2018-07-06T10:49:54.628Z,10.80
2018-07-06T10:50:54.654Z,13.00
2018-07-06T10:51:54.679Z,11.70
2018-07-06T10:52:54.703Z,13.90
2018-07-06T10:53:54.725Z,13.80
2018-07-06T10:54:54.754Z,12.80
2018-07-06T10:55:54.778Z,14.60
2018-07-06T10:56:54.804Z,15.40
2018-07-06T10:57:54.825Z,14.30
2018-07-06T10:58:54.853Z,16.20
2018-07-06T10:59:54.879Z,17.80
2018-07-06T11:00:54.906Z,15.80
2018-07-06T11:01:54.927Z,16.20
2018-07-06T11:02:54.962Z,15.50
2018-07-06T11:03:54.980Z,15.20
2018-07-06T11:04:55.042Z,13.20
2018-07-06T11:05:55.036Z,15.70
2018-07-06T11:06:55.061Z,14.90
2018-07-06T11:07:55.092Z,12.90
2018-07-06T11:08:55.166Z,14.10
2018-07-06T11:09:55.133Z,16.30
2018-07-06T11:10:55.164Z,13.70
2018-07-06T11:11:55.187Z,14.70
2018-07-06T11:12:55.215Z,12.90
2018-07-06T11:13:55.234Z,12.80
2018-07-06T11:14:55.259Z,12.40
2018-07-06T11:15:55.287Z,12.70
2018-07-06T11:16:55.309Z,17.40
2018-07-06T11:17:55.338Z,15.90
2018-07-06T11:18:55.365Z,15.50
2018-07-06T11:19:55.389Z,16.20
2018-07-06T11:20:55.419Z,13.60
2018-07-06T11:21:55.444Z,13.10
2018-07-06T11:22:55.466Z,13.20
2018-07-06T11:23:55.495Z,13.50
2018-07-06T11:24:55.521Z,11.80
2018-07-06T11:25:55.546Z,11.70
2018-07-06T11:26:55.571Z,14.20
2018-07-06T11:27:55.596Z,16.00
2018-07-06T11:28:55.629Z,12.50
2018-07-06T11:29:55.649Z,11.50
2018-07-06T11:30:55.671Z,12.10
2018-07-06T11:31:55.703Z,13.50
2018-07-06T11:32:55.728Z,13.60
2018-07-06T11:33:55.749Z,13.10
2018-07-06T11:34:55.778Z,12.00
2018-07-06T11:35:55.804Z,15.40
2018-07-06T11:36:55.831Z,14.30
2018-07-06T11:37:55.887Z,14.80
2018-07-06T11:38:55.885Z,15.30
2018-07-06T11:39:55.908Z,16.50
2018-07-06T11:40:55.935Z,16.00
2018-07-06T11:41:55.965Z,14.90
2018-07-06T11:42:55.985Z,14.70
2018-07-06T11:43:56.020Z,15.40
2018-07-06T11:44:56.107Z,16.10
2018-07-06T11:45:56.059Z,14.90
2018-07-06T11:46:56.086Z,15.20
2018-07-06T11:47:56.110Z,16.00
2018-07-06T11:48:56.138Z,13.00
2018-07-06T11:49:56.168Z,15.70
2018-07-06T11:50:56.187Z,12.20
2018-07-06T11:51:56.216Z,12.50
2018-07-06T11:52:56.245Z,12.50
2018-07-06T11:53:56.271Z,13.00
2018-07-06T11:54:56.299Z,11.90
2018-07-06T11:55:56.358Z,13.10
2018-07-06T11:56:56.360Z,12.60
2018-07-06T11:57:56.381Z,10.30
2018-07-06T11:58:56.398Z,11.00
2018-07-06T11:59:56.448Z,10.10
2018-07-06T12:00:56.456Z,13.30
2018-07-06T12:01:56.525Z,12.60
2018-07-06T12:02:56.501Z,14.50
2018-07-06T12:03:56.617Z,13.10
2018-07-06T12:04:56.559Z,12.80
2018-07-06T12:05:56.585Z,11.80
2018-07-06T12:06:56.610Z,10.70
2018-07-06T12:07:56.634Z,12.20
2018-07-06T12:08:56.665Z,13.10
2018-07-06T12:09:56.690Z,13.00
2018-07-06T12:10:56.710Z,12.90
2018-07-06T12:11:56.744Z,13.70
2018-07-06T12:12:56.766Z,12.40
2018-07-06T12:13:56.799Z,11.80
2018-07-06T12:14:56.831Z,10.10
2018-07-06T12:15:56.847Z,11.90
2018-07-06T12:16:56.875Z,11.50
2018-07-06T12:17:56.894Z,11.10
2018-07-06T12:18:56.929Z,10.90
2018-07-06T12:19:56.969Z,10.60
2018-07-06T12:20:57.006Z,10.40
2018-07-06T12:21:57.001Z,11.50
2018-07-06T12:22:57.029Z,14.60
2018-07-06T12:23:57.057Z,10.40
2018-07-06T12:24:57.084Z,12.70
2018-07-06T12:25:57.111Z,10.80
2018-07-06T12:26:57.133Z,12.00
2018-07-06T12:27:57.218Z,12.60
2018-07-06T12:28:57.191Z,12.30
2018-07-06T12:29:57.213Z,16.20
2018-07-06T12:30:57.271Z,21.20
2018-07-06T12:31:57.274Z,13.20
2018-07-06T12:32:57.297Z,10.40
2018-07-06T12:33:57.317Z,13.10
2018-07-06T12:34:57.349Z,10.50
2018-07-06T12:35:57.373Z,9.20
2018-07-06T12:36:57.458Z,7.80
2018-07-06T12:37:57.432Z,9.50
2018-07-06T12:38:57.455Z,10.50
2018-07-06T12:39:57.487Z,11.80
2018-07-06T12:40:57.513Z,12.90
2018-07-06T12:41:57.536Z,11.30
2018-07-06T12:42:57.560Z,9.40
2018-07-06T12:43:57.589Z,8.50
2018-07-06T12:44:57.617Z,10.00
2018-07-06T12:45:57.643Z,9.90
2018-07-06T12:46:57.671Z,10.40
2018-07-06T12:47:57.691Z,8.80
2018-07-06T12:48:57.727Z,7.70
2018-07-06T12:49:57.755Z,9.60
2018-07-06T12:50:57.786Z,10.20
2018-07-06T12:51:57.805Z,9.40
2018-07-06T12:52:57.834Z,8.60
2018-07-06T12:53:57.864Z,10.40
2018-07-06T12:54:57.885Z,11.60
2018-07-06T12:55:57.913Z,7.70
2018-07-06T12:56:57.941Z,9.30
2018-07-06T12:57:57.966Z,8.20
2018-07-06T12:58:57.994Z,10.70
2018-07-06T12:59:58.017Z,8.30
2018-07-06T13:00:58.065Z,11.10
2018-07-06T13:01:58.070Z,6.50
2018-07-06T13:02:58.094Z,9.60
2018-07-06T13:03:58.122Z,9.40
2018-07-06T13:04:58.154Z,8.60
2018-07-06T13:05:58.180Z,10.10
2018-07-06T13:06:58.208Z,9.10
2018-07-06T13:07:58.232Z,7.20
2018-07-06T13:08:58.261Z,9.20
2018-07-06T13:09:58.286Z,11.20
2018-07-06T13:10:58.316Z,8.20
2018-07-06T13:11:58.343Z,8.60
2018-07-06T13:12:58.368Z,7.70
2018-07-06T13:13:58.395Z,8.80
2018-07-06T13:14:58.420Z,10.40
2018-07-06T13:15:58.451Z,9.80
2018-07-06T13:16:58.476Z,9.10
2018-07-06T13:17:58.503Z,8.50
2018-07-06T13:18:58.531Z,7.70
2018-07-06T13:19:58.641Z,9.20
2018-07-06T13:20:58.631Z,8.70
2018-07-06T13:21:58.609Z,7.30
2018-07-06T13:22:58.638Z,9.60
2018-07-06T13:23:58.666Z,10.00
2018-07-06T13:24:58.690Z,11.10
2018-07-06T13:25:58.761Z,7.40
2018-07-06T13:26:58.744Z,9.40
2018-07-06T13:27:58.773Z,10.20
2018-07-06T13:28:58.801Z,9.60
2018-07-06T13:29:58.824Z,8.50
2018-07-06T13:30:58.850Z,10.20
2018-07-06T13:31:58.878Z,7.10
2018-07-06T13:32:58.908Z,9.20
2018-07-06T13:33:58.932Z,7.50
2018-07-06T13:34:58.959Z,8.80
2018-07-06T13:35:58.987Z,9.50
2018-07-06T13:36:59.010Z,8.20
2018-07-06T13:37:59.043Z,8.40
2018-07-06T13:38:59.068Z,8.20
2018-07-06T13:39:59.089Z,8.30
2018-07-06T13:40:59.122Z,8.50
2018-07-06T13:41:59.150Z,11.90
2018-07-06T13:42:59.176Z,9.20
2018-07-06T13:43:59.198Z,9.90
2018-07-06T13:44:59.229Z,9.60
2018-07-06T13:45:59.253Z,8.70
2018-07-06T13:46:59.278Z,8.80
2018-07-06T13:47:59.306Z,7.20
2018-07-06T13:48:59.333Z,7.30
2018-07-06T13:49:59.361Z,7.30
2018-07-06T13:50:59.394Z,7.70
2018-07-06T13:51:59.412Z,8.10
2018-07-06T13:52:59.443Z,12.50
2018-07-06T13:53:59.461Z,10.40
2018-07-06T13:54:59.492Z,7.10
2018-07-06T13:55:59.518Z,7.10
2018-07-06T13:56:59.542Z,9.90
2018-07-06T13:57:59.570Z,9.00
2018-07-06T13:58:59.632Z,8.50
2018-07-06T13:59:59.621Z,7.30
2018-07-06T14:00:59.652Z,8.90
2018-07-06T14:01:59.676Z,8.50
2018-07-06T14:02:59.707Z,9.70
2018-07-06T14:03:59.731Z,7.10
2018-07-06T14:04:59.829Z,6.90
2018-07-06T14:05:59.793Z,7.30
2018-07-06T14:06:59.806Z,9.00
2018-07-06T14:07:59.836Z,8.10
2018-07-06T14:08:59.866Z,7.40
2018-07-06T14:09:59.882Z,6.60
2018-07-06T14:10:59.908Z,9.00
2018-07-06T14:11:59.979Z,8.80
2018-07-06T14:12:59.963Z,8.10
2018-07-06T14:13:59.989Z,10.20
2018-07-06T14:15:00.029Z,7.50
2018-07-06T14:16:00.045Z,7.10
2018-07-06T14:17:00.069Z,7.00
2018-07-06T14:18:00.095Z,8.20
2018-07-06T14:19:00.122Z,6.90
2018-07-06T14:20:00.146Z,8.60
2018-07-06T14:21:00.168Z,7.90
2018-07-06T14:22:00.203Z,6.90
2018-07-06T14:23:00.220Z,6.40
2018-07-06T14:24:00.254Z,7.80
2018-07-06T14:25:00.276Z,9.20
2018-07-06T14:26:00.302Z,10.10
2018-07-06T14:27:00.324Z,9.70
2018-07-06T14:28:00.359Z,8.60
2018-07-06T14:29:00.384Z,8.90
2018-07-06T14:30:00.402Z,8.50
2018-07-06T14:31:00.435Z,8.00
2018-07-06T14:32:00.457Z,7.10
2018-07-06T14:33:00.483Z,8.10
2018-07-06T14:34:00.511Z,10.10
2018-07-06T14:35:00.556Z,11.40
2018-07-06T14:36:00.561Z,7.40
2018-07-06T14:37:00.586Z,7.30
2018-07-06T14:38:00.611Z,9.40
2018-07-06T14:39:00.636Z,7.20
2018-07-06T14:40:00.658Z,9.00
2018-07-06T14:41:00.701Z,7.20
2018-07-06T14:42:00.712Z,6.00
2018-07-06T14:43:00.740Z,6.80
2018-07-06T14:44:00.766Z,8.90
2018-07-06T14:45:00.793Z,8.40
2018-07-06T14:46:00.818Z,7.90
2018-07-06T14:47:00.838Z,7.40
2018-07-06T14:48:00.872Z,6.90
2018-07-06T14:49:00.893Z,5.80
2018-07-06T14:50:00.918Z,8.10
2018-07-06T14:51:00.944Z,7.60
2018-07-06T14:52:00.978Z,6.80
2018-07-06T14:53:00.997Z,7.10
2018-07-06T14:54:01.024Z,7.40
2018-07-06T14:55:01.051Z,6.10
2018-07-06T14:56:01.079Z,7.00
2018-07-06T14:57:01.104Z,8.10
2018-07-06T14:58:01.131Z,11.30
2018-07-06T14:59:01.156Z,8.30
2018-07-06T15:00:01.185Z,7.00
2018-07-06T15:01:01.208Z,7.50
2018-07-06T15:02:01.232Z,6.40
2018-07-06T15:03:01.259Z,7.00
2018-07-06T15:04:01.283Z,9.90
2018-07-06T15:05:01.308Z,8.80
2018-07-06T15:06:01.336Z,7.90
2018-07-06T15:07:01.459Z,6.80
2018-07-06T15:08:01.390Z,6.90
2018-07-06T15:09:01.441Z,7.80
2018-07-06T15:10:01.440Z,8.50
2018-07-06T15:11:01.462Z,8.50
2018-07-06T15:12:01.488Z,9.30
2018-07-06T15:13:01.533Z,7.50
2018-07-06T15:14:01.540Z,6.10
2018-07-06T15:15:01.565Z,9.90
2018-07-06T15:16:01.605Z,9.40
2018-07-06T15:17:01.628Z,8.90
2018-07-06T15:18:01.649Z,7.70
2018-07-06T15:19:01.670Z,8.30
2018-07-06T15:20:01.695Z,9.30
2018-07-06T15:21:01.722Z,8.20
2018-07-06T15:22:01.750Z,7.60
2018-07-06T15:23:01.772Z,7.50
2018-07-06T15:24:01.803Z,8.20
2018-07-06T15:25:01.828Z,9.70
2018-07-06T15:26:01.851Z,8.60
2018-07-06T15:27:01.878Z,7.30
2018-07-06T15:28:01.904Z,6.80
2018-07-06T15:29:01.926Z,7.80
2018-07-06T15:30:01.970Z,9.10
2018-07-06T15:31:01.981Z,7.70
2018-07-06T15:32:02.007Z,7.40
2018-07-06T15:33:02.033Z,7.10
2018-07-06T15:34:02.063Z,4.10
2018-07-06T15:35:02.084Z,5.00
2018-07-06T15:36:02.113Z,6.70
2018-07-06T15:37:02.136Z,5.40
2018-07-06T15:38:02.161Z,3.90
2018-07-06T15:39:02.183Z,6.40
2018-07-06T15:40:02.211Z,6.90
2018-07-06T15:41:02.292Z,3.90
2018-07-06T15:42:02.266Z,4.60
2018-07-06T15:43:02.292Z,4.50
2018-07-06T15:44:02.316Z,3.70
2018-07-06T15:45:02.340Z,4.90
2018-07-06T15:46:02.364Z,5.20
2018-07-06T15:47:02.390Z,7.80
2018-07-06T15:48:02.416Z,3.70
2018-07-06T15:49:02.444Z,5.90
2018-07-06T15:50:02.469Z,4.50
2018-07-06T15:51:02.492Z,4.20
2018-07-06T15:52:02.522Z,5.50
2018-07-06T15:53:02.542Z,5.00
2018-07-06T15:54:02.571Z,4.50
2018-07-06T15:55:02.599Z,6.50
2018-07-06T15:56:02.624Z,6.80
2018-07-06T15:57:02.647Z,4.60
2018-07-06T15:58:02.676Z,6.70
2018-07-06T15:59:02.701Z,6.20
2018-07-06T16:00:02.727Z,4.80
2018-07-06T16:01:02.751Z,5.00
2018-07-06T16:02:02.783Z,4.80
2018-07-06T16:03:02.801Z,5.30
2018-07-06T16:04:02.826Z,3.90
2018-07-06T16:05:02.856Z,4.10
2018-07-06T16:06:02.876Z,7.40
2018-07-06T16:07:02.911Z,4.50
2018-07-06T16:08:02.928Z,4.10
2018-07-06T16:09:02.956Z,4.40
2018-07-06T16:10:02.990Z,4.00
2018-07-06T16:11:03.010Z,6.30
2018-07-06T16:12:03.029Z,3.80
2018-07-06T16:13:03.058Z,4.30
2018-07-06T16:14:03.096Z,4.80
2018-07-06T16:15:03.112Z,5.10
2018-07-06T16:16:03.134Z,6.20
2018-07-06T16:17:03.163Z,4.80